Terminal Aerodrome Forecast
Issued by NWS

Home | Current Version | Previous Version | Text Only | Print | Product List | Glossary On
Versions: 1 2 3 4 5 6 7 8 9 10 11 12 13 14 15 16 17 18 19 20 21 22 23
000
FTUS45 KTFX 281700 RRA
TAFHVR
TAF
KHVR 281741Z 2818/2918 31011G20KT P6SM VCFG BKN003
     FM282100 35012G22KT P6SM VCSH OVC004
     FM290100 35014KT 2SM -SN BR VV002=

USA.gov is the U.S. government's official web portal to all federal, state and local government web resources and services.